Time;durP1;ratioP1;P1;durP2;ratioP2;P2;SDS_P1;SDS_P2;PMS_P1;PMS_P2;Temp;Humidity;BMP_temperature;BMP_pressure;BME280_temperature;BME280_humidity;BME280_pressure;Samples;Min_cycle;Max_cycle;Signal;HPM_P1;HPM_P2
2022/11/26 00:01:18;;;;;;;37.22;24.65;;;;;;;;;;6294817;28;20045;-73
2022/11/26 00:04:20;;;;;;;38.17;24.52;;;;;;;;;;6294938;28;22052;-73
2022/11/26 00:07:25;;;;;;;35.65;24.35;;;;;;;;;;6294969;28;20079;-73
2022/11/26 00:10:28;;;;;;;39.05;23.27;;;;;;;;;;6286018;28;20336;-73
2022/11/26 00:13:31;;;;;;;37.03;24.90;;;;;;;;;;6294579;28;20052;-73
2022/11/26 00:16:34;;;;;;;37.38;23.15;;;;;;;;;;6292928;28;20052;-73
2022/11/26 00:19:35;;;;;;;34.78;22.73;;;;;;;;;;6290058;28;20052;-70
2022/11/26 00:22:40;;;;;;;33.50;23.08;;;;;;;;;;6294817;28;20047;-71
2022/11/26 00:25:45;;;;;;;33.78;23.17;;;;;;;;;;6294085;28;20348;-73
2022/11/26 00:28:51;;;;;;;37.20;24.83;;;;;;;;;;6293424;28;20143;-70
2022/11/26 00:31:54;;;;;;;101.82;56.30;;;;;;;;;;6294972;28;20131;-70
2022/11/26 00:34:55;;;;;;;233.50;107.65;;;;;;;;;;6299401;28;20120;-72
2022/11/26 00:37:57;;;;;;;135.20;69.25;;;;;;;;;;6297320;28;20052;-70
2022/11/26 00:40:59;;;;;;;61.80;35.63;;;;;;;;;;6294629;28;20325;-69
2022/11/26 00:44:01;;;;;;;49.28;29.90;;;;;;;;;;6294096;28;20122;-74
2022/11/26 00:47:04;;;;;;;41.67;25.15;;;;;;;;;;6291695;28;20052;-71
2022/11/26 00:50:07;;;;;;;35.25;23.15;;;;;;;;;;6299036;28;20060;-71
2022/11/26 00:53:12;;;;;;;34.90;22.73;;;;;;;;;;6293443;28;20261;-71
2022/11/26 00:56:16;;;;;;;33.17;21.60;;;;;;;;;;6293380;28;20784;-68
2022/11/26 00:59:21;;;;;;;34.63;22.00;;;;;;;;;;6294845;28;20067;-71
2022/11/26 01:02:24;;;;;;;28.27;20.35;;;;;;;;;;6291025;28;20447;-71
2022/11/26 01:05:29;;;;;;;30.33;20.33;;;;;;;;;;6292776;28;20059;-71
2022/11/26 01:08:33;;;;;;;32.45;20.70;;;;;;;;;;6295745;28;20125;-72
2022/11/26 01:11:35;;;;;;;31.48;20.27;;;;;;;;;;6292210;28;20222;-68
2022/11/26 01:14:37;;;;;;;28.23;20.17;;;;;;;;;;6292728;28;20053;-70
2022/11/26 01:17:40;;;;;;;29.77;19.90;;;;;;;;;;6291503;28;20114;-71
2022/11/26 01:20:42;;;;;;;30.00;19.88;;;;;;;;;;6284933;28;20144;-70
2022/11/26 01:23:44;;;;;;;31.95;19.67;;;;;;;;;;6290480;28;20236;-71
2022/11/26 01:26:46;;;;;;;28.92;19.40;;;;;;;;;;6293178;28;20061;-71
2022/11/26 01:29:47;;;;;;;29.52;19.63;;;;;;;;;;6289907;28;20048;-71
2022/11/26 01:32:51;;;;;;;30.85;21.02;;;;;;;;;;6289822;28;20114;-71
2022/11/26 01:35:52;;;;;;;29.83;19.80;;;;;;;;;;6289223;28;20057;-70
2022/11/26 01:38:56;;;;;;;31.35;20.42;;;;;;;;;;6296950;28;20048;-71
2022/11/26 01:42:05;;;;;;;29.85;20.88;;;;;;;;;;6292969;28;20369;-71
2022/11/26 01:45:14;;;;;;;28.98;19.80;;;;;;;;;;6289840;28;20056;-71
2022/11/26 01:48:27;;;;;;;32.05;21.33;;;;;;;;;;6294360;28;20053;-70
2022/11/26 01:51:28;;;;;;;30.85;20.75;;;;;;;;;;6291153;28;20410;-71
2022/11/26 01:54:31;;;;;;;30.63;20.90;;;;;;;;;;6291264;28;20056;-69
2022/11/26 01:57:37;;;;;;;30.23;20.90;;;;;;;;;;6291111;28;20044;-70
2022/11/26 02:00:39;;;;;;;33.53;21.98;;;;;;;;;;6294293;28;20040;-71
2022/11/26 02:03:45;;;;;;;37.10;21.48;;;;;;;;;;6291009;28;20056;-71
2022/11/26 02:06:49;;;;;;;31.95;21.25;;;;;;;;;;6291033;28;20049;-70
2022/11/26 02:09:51;;;;;;;36.60;22.95;;;;;;;;;;6292213;28;20402;-71
2022/11/26 02:12:53;;;;;;;33.00;23.42;;;;;;;;;;6289444;28;20056;-70
2022/11/26 02:16:00;;;;;;;33.78;22.60;;;;;;;;;;6292575;28;20060;-71
2022/11/26 02:19:17;;;;;;;33.95;22.42;;;;;;;;;;6291193;28;20041;-71
2022/11/26 02:22:35;;;;;;;32.92;21.50;;;;;;;;;;6294800;28;20044;-71
2022/11/26 02:25:50;;;;;;;33.25;22.38;;;;;;;;;;6293060;28;20095;-71
2022/11/26 02:29:04;;;;;;;34.45;21.38;;;;;;;;;;6293339;28;20049;-71
2022/11/26 02:32:09;;;;;;;37.97;22.67;;;;;;;;;;6293644;28;20050;-73
2022/11/26 02:35:15;;;;;;;35.50;22.25;;;;;;;;;;6297284;28;20056;-71
2022/11/26 02:38:20;;;;;;;35.05;21.88;;;;;;;;;;6298320;28;20119;-69
2022/11/26 02:41:22;;;;;;;32.83;22.08;;;;;;;;;;6296401;28;20272;-72
2022/11/26 02:44:24;;;;;;;33.88;21.95;;;;;;;;;;6296466;28;20086;-72
2022/11/26 02:47:28;;;;;;;34.30;23.25;;;;;;;;;;6302575;28;20055;-72
2022/11/26 02:50:35;;;;;;;38.17;23.23;;;;;;;;;;6294258;28;20055;-71
2022/11/26 02:53:37;;;;;;;34.92;22.92;;;;;;;;;;6294688;28;20060;-71
2022/11/26 02:56:40;;;;;;;37.55;24.40;;;;;;;;;;6296792;28;20251;-71
2022/11/26 02:59:42;;;;;;;36.75;23.30;;;;;;;;;;6292571;28;20060;-73
2022/11/26 03:02:48;;;;;;;36.55;24.08;;;;;;;;;;6296742;28;20106;-72
2022/11/26 03:05:53;;;;;;;36.13;23.23;;;;;;;;;;6297110;28;20093;-71
2022/11/26 03:08:54;;;;;;;34.00;22.65;;;;;;;;;;6291658;28;20052;-72
2022/11/26 03:11:56;;;;;;;34.15;23.30;;;;;;;;;;6296484;28;20619;-72
2022/11/26 03:14:58;;;;;;;35.72;23.60;;;;;;;;;;6292616;28;20044;-72
2022/11/26 03:18:01;;;;;;;34.28;24.52;;;;;;;;;;6300321;28;20060;-73
2022/11/26 03:21:02;;;;;;;36.05;23.73;;;;;;;;;;6295851;28;20110;-73
2022/11/26 03:24:05;;;;;;;37.05;23.65;;;;;;;;;;6295441;28;20059;-72
2022/11/26 03:27:07;;;;;;;35.15;22.77;;;;;;;;;;6297437;28;20057;-72
2022/11/26 03:30:09;;;;;;;34.45;22.02;;;;;;;;;;6297461;28;20053;-72
2022/11/26 03:33:12;;;;;;;33.85;23.08;;;;;;;;;;6291888;28;20041;-72
2022/11/26 03:36:14;;;;;;;37.25;23.35;;;;;;;;;;6297008;28;20045;-72
2022/11/26 03:39:15;;;;;;;37.15;23.67;;;;;;;;;;6295145;28;20099;-71
2022/11/26 03:42:17;;;;;;;36.97;24.25;;;;;;;;;;6286372;28;20044;-72
2022/11/26 03:45:19;;;;;;;37.88;23.58;;;;;;;;;;6294271;28;20036;-72
2022/11/26 03:48:22;;;;;;;40.58;24.17;;;;;;;;;;6287137;28;20210;-71
2022/11/26 03:51:23;;;;;;;34.88;23.88;;;;;;;;;;6295774;28;20044;-72
2022/11/26 03:54:25;;;;;;;36.80;22.77;;;;;;;;;;6298273;28;20057;-72
2022/11/26 03:57:27;;;;;;;38.33;23.55;;;;;;;;;;6304578;28;20224;-72
2022/11/26 04:00:29;;;;;;;38.13;25.10;;;;;;;;;;6290841;28;20056;-72
2022/11/26 04:03:32;;;;;;;38.97;24.10;;;;;;;;;;6270408;28;20173;-72
2022/11/26 04:06:33;;;;;;;35.38;24.52;;;;;;;;;;6297204;28;20071;-73
2022/11/26 04:09:35;;;;;;;38.08;26.42;;;;;;;;;;6289930;28;20045;-71
2022/11/26 04:12:37;;;;;;;45.63;26.73;;;;;;;;;;6294930;28;20044;-72
2022/11/26 04:15:38;;;;;;;42.60;27.98;;;;;;;;;;6294644;28;20052;-72
2022/11/26 04:18:42;;;;;;;39.20;26.65;;;;;;;;;;6293478;28;20045;-72
2022/11/26 04:21:43;;;;;;;42.97;27.65;;;;;;;;;;6292168;28;20053;-72
2022/11/26 04:24:45;;;;;;;43.47;28.67;;;;;;;;;;6292604;28;20082;-72
2022/11/26 04:27:46;;;;;;;40.78;28.30;;;;;;;;;;6298947;28;20070;-72
2022/11/26 04:30:48;;;;;;;40.17;26.80;;;;;;;;;;6292806;28;20071;-70
2022/11/26 04:33:51;;;;;;;43.97;28.33;;;;;;;;;;6294194;28;20048;-72
2022/11/26 04:36:53;;;;;;;40.95;26.80;;;;;;;;;;6295921;28;20052;-70
2022/11/26 04:39:54;;;;;;;45.42;27.85;;;;;;;;;;6295219;28;20053;-72
2022/11/26 04:42:56;;;;;;;47.25;27.92;;;;;;;;;;6292544;28;20056;-70
2022/11/26 04:45:58;;;;;;;40.47;27.38;;;;;;;;;;6293724;28;20358;-72
2022/11/26 04:49:01;;;;;;;41.08;26.75;;;;;;;;;;6291552;28;20091;-71
2022/11/26 04:52:03;;;;;;;38.25;25.90;;;;;;;;;;6287274;28;20517;-72
2022/11/26 04:55:05;;;;;;;41.15;27.95;;;;;;;;;;6290296;28;20040;-71
2022/11/26 04:58:07;;;;;;;42.20;29.02;;;;;;;;;;6292390;28;20094;-71
2022/11/26 05:01:08;;;;;;;38.50;26.50;;;;;;;;;;6294547;28;20343;-71
2022/11/26 05:04:12;;;;;;;39.42;25.88;;;;;;;;;;6292177;28;20244;-72
2022/11/26 05:07:13;;;;;;;38.85;26.35;;;;;;;;;;6294494;28;20112;-71
2022/11/26 05:10:15;;;;;;;37.05;25.40;;;;;;;;;;6292594;28;20067;-72
2022/11/26 05:13:17;;;;;;;38.13;25.75;;;;;;;;;;6289163;28;20068;-71
2022/11/26 05:16:18;;;;;;;42.15;26.65;;;;;;;;;;6294442;28;20347;-72
2022/11/26 05:19:21;;;;;;;39.38;26.67;;;;;;;;;;6292038;28;20122;-72
2022/11/26 05:22:23;;;;;;;37.95;26.00;;;;;;;;;;6291129;28;20209;-72
2022/11/26 05:25:25;;;;;;;41.50;25.35;;;;;;;;;;6291914;28;20104;-72
2022/11/26 05:28:27;;;;;;;38.55;25.05;;;;;;;;;;6289284;28;20086;-72
2022/11/26 05:31:28;;;;;;;38.13;24.55;;;;;;;;;;6291496;28;20044;-72
2022/11/26 05:34:32;;;;;;;35.03;24.95;;;;;;;;;;6294031;28;20051;-71
2022/11/26 05:37:33;;;;;;;37.40;24.85;;;;;;;;;;6291765;28;20122;-72
2022/11/26 05:40:35;;;;;;;42.45;26.00;;;;;;;;;;6293752;28;20049;-72
2022/11/26 05:43:37;;;;;;;37.72;24.80;;;;;;;;;;6293200;28;20407;-69
2022/11/26 05:46:40;;;;;;;41.30;25.10;;;;;;;;;;6295031;28;20050;-72
2022/11/26 05:49:43;;;;;;;37.17;23.92;;;;;;;;;;6288533;28;20045;-72
2022/11/26 05:52:45;;;;;;;36.97;25.55;;;;;;;;;;6294027;28;20048;-73
2022/11/26 05:55:47;;;;;;;35.13;25.25;;;;;;;;;;6295300;28;20118;-72
2022/11/26 05:58:48;;;;;;;35.65;24.95;;;;;;;;;;6293191;28;20048;-70
2022/11/26 06:01:50;;;;;;;43.25;27.02;;;;;;;;;;6294686;28;20060;-72
2022/11/26 06:04:53;;;;;;;42.45;27.30;;;;;;;;;;6292826;28;20091;-71
2022/11/26 06:07:55;;;;;;;36.58;25.85;;;;;;;;;;6293842;28;20079;-72
2022/11/26 06:10:56;;;;;;;37.85;25.90;;;;;;;;;;6293177;28;20163;-72
2022/11/26 06:13:58;;;;;;;39.40;25.50;;;;;;;;;;6294581;28;20056;-72
2022/11/26 06:17:00;;;;;;;42.88;26.17;;;;;;;;;;6295256;28;20091;-72
2022/11/26 06:20:04;;;;;;;37.92;26.52;;;;;;;;;;6300498;28;20059;-72
2022/11/26 06:23:06;;;;;;;40.38;26.35;;;;;;;;;;6295611;28;20052;-73
2022/11/26 06:26:09;;;;;;;37.28;25.05;;;;;;;;;;6293944;28;20052;-71
2022/11/26 06:29:10;;;;;;;37.05;25.08;;;;;;;;;;6295464;28;20098;-72
2022/11/26 06:32:12;;;;;;;36.10;24.77;;;;;;;;;;6295986;28;20281;-72
2022/11/26 06:35:15;;;;;;;36.47;25.38;;;;;;;;;;6297316;28;20052;-72
2022/11/26 06:38:17;;;;;;;35.17;24.77;;;;;;;;;;6295527;28;20060;-70
2022/11/26 06:41:18;;;;;;;35.25;24.63;;;;;;;;;;6297020;28;20064;-70
2022/11/26 06:44:20;;;;;;;36.40;23.92;;;;;;;;;;6295567;28;20233;-71
2022/11/26 06:47:22;;;;;;;33.75;24.20;;;;;;;;;;6296135;28;20041;-71
2022/11/26 06:50:25;;;;;;;34.65;23.83;;;;;;;;;;6296369;28;20060;-70
2022/11/26 06:53:26;;;;;;;33.53;24.02;;;;;;;;;;6293396;28;20060;-74
2022/11/26 06:56:28;;;;;;;36.50;24.40;;;;;;;;;;6296481;28;20059;-70
2022/11/26 06:59:30;;;;;;;33.83;24.35;;;;;;;;;;6295543;28;20221;-68
2022/11/26 07:02:32;;;;;;;33.88;23.88;;;;;;;;;;6303369;28;20385;-71
2022/11/26 07:05:35;;;;;;;33.58;23.88;;;;;;;;;;6295130;28;20624;-71
2022/11/26 07:08:37;;;;;;;36.67;22.90;;;;;;;;;;6298248;28;20048;-70
2022/11/26 07:11:40;;;;;;;32.55;23.73;;;;;;;;;;6295481;28;20052;-67
2022/11/26 07:14:42;;;;;;;34.42;23.63;;;;;;;;;;6296092;28;20045;-70
2022/11/26 07:17:44;;;;;;;32.53;23.23;;;;;;;;;;6296738;28;20107;-71
2022/11/26 07:20:47;;;;;;;31.85;21.23;;;;;;;;;;6294686;28;20055;-71
2022/11/26 07:23:50;;;;;;;29.27;21.98;;;;;;;;;;6295690;28;20056;-71
2022/11/26 07:26:51;;;;;;;30.35;21.10;;;;;;;;;;6297611;28;20436;-71
2022/11/26 07:29:53;;;;;;;28.95;20.05;;;;;;;;;;6293876;28;20102;-71
2022/11/26 07:32:55;;;;;;;27.50;20.50;;;;;;;;;;6294321;28;20141;-71
2022/11/26 07:36:00;;;;;;;26.38;19.38;;;;;;;;;;6293776;28;20057;-72
2022/11/26 07:39:03;;;;;;;23.60;17.77;;;;;;;;;;6293128;28;20056;-71
2022/11/26 07:42:04;;;;;;;22.33;16.85;;;;;;;;;;6295462;28;20056;-72
2022/11/26 07:45:07;;;;;;;23.27;18.00;;;;;;;;;;6291424;28;20053;-71
2022/11/26 07:48:09;;;;;;;23.40;18.67;;;;;;;;;;6295516;28;20053;-69
2022/11/26 07:51:18;;;;;;;20.45;16.98;;;;;;;;;;6293706;28;20122;-68
2022/11/26 07:54:20;;;;;;;20.13;16.58;;;;;;;;;;6292501;28;20072;-69
2022/11/26 07:57:21;;;;;;;21.88;15.90;;;;;;;;;;6294470;28;20214;-71
2022/11/26 08:00:23;;;;;;;22.88;16.38;;;;;;;;;;6294943;28;20059;-71
2022/11/26 08:03:25;;;;;;;23.85;16.40;;;;;;;;;;6295098;28;20045;-68
2022/11/26 08:06:29;;;;;;;19.63;15.40;;;;;;;;;;6293438;28;20056;-70
2022/11/26 08:09:31;;;;;;;20.30;16.10;;;;;;;;;;6295854;28;20063;-68
2022/11/26 08:12:32;;;;;;;19.08;14.98;;;;;;;;;;6302022;28;20055;-70
2022/11/26 08:15:35;;;;;;;21.35;14.63;;;;;;;;;;6291296;28;20056;-71
2022/11/26 08:18:37;;;;;;;18.35;14.10;;;;;;;;;;6291004;28;20064;-68
2022/11/26 08:21:41;;;;;;;18.27;14.38;;;;;;;;;;6295560;28;20051;-69
2022/11/26 08:24:42;;;;;;;15.80;13.40;;;;;;;;;;6294619;28;20044;-70
2022/11/26 08:27:44;;;;;;;18.88;14.48;;;;;;;;;;6292700;28;20053;-70
2022/11/26 08:30:46;;;;;;;18.40;14.65;;;;;;;;;;6294639;28;20113;-70
2022/11/26 08:33:48;;;;;;;17.60;13.93;;;;;;;;;;6289851;28;20064;-70
2022/11/26 08:36:54;;;;;;;18.20;13.82;;;;;;;;;;6293049;28;20089;-71
2022/11/26 08:39:56;;;;;;;20.67;14.80;;;;;;;;;;6289366;28;20127;-71
2022/11/26 08:42:57;;;;;;;18.02;14.30;;;;;;;;;;6288920;28;22023;-71
2022/11/26 08:46:00;;;;;;;18.00;14.48;;;;;;;;;;6291072;28;20045;-69
2022/11/26 08:49:01;;;;;;;17.00;14.32;;;;;;;;;;6293801;28;20095;-73
2022/11/26 08:52:05;;;;;;;16.30;13.95;;;;;;;;;;6296671;28;20064;-70
2022/11/26 08:55:07;;;;;;;17.90;14.65;;;;;;;;;;6295888;28;20309;-72
2022/11/26 08:58:09;;;;;;;16.05;14.02;;;;;;;;;;6298339;28;20112;-72
2022/11/26 09:01:11;;;;;;;16.50;12.82;;;;;;;;;;6298970;28;20040;-72
2022/11/26 09:04:13;;;;;;;15.85;13.27;;;;;;;;;;6296171;28;20067;-72
2022/11/26 09:07:16;;;;;;;16.95;14.02;;;;;;;;;;6292794;28;20044;-73
2022/11/26 09:10:18;;;;;;;;;;;;;;;;;;6290504;28;20353;-71
2022/11/26 09:13:19;;;;;;;17.17;14.73;;;;;;;;;;6291574;28;19931;-71
2022/11/26 09:16:21;;;;;;;18.00;15.05;;;;;;;;;;6294404;28;20540;-71
2022/11/26 09:19:24;;;;;;;17.20;14.60;;;;;;;;;;6293130;28;21098;-71
2022/11/26 09:22:27;;;;;;;17.23;15.07;;;;;;;;;;6292637;28;20103;-72
2022/11/26 09:25:28;;;;;;;19.60;16.88;;;;;;;;;;6294497;28;20131;-68
2022/11/26 09:28:30;;;;;;;19.08;17.05;;;;;;;;;;6290982;28;20095;-69
2022/11/26 09:31:32;;;;;;;23.05;20.50;;;;;;;;;;6294942;28;20055;-69
2022/11/26 09:34:33;;;;;;;20.43;17.77;;;;;;;;;;6289042;28;20052;-72
2022/11/26 09:37:36;;;;;;;20.95;18.75;;;;;;;;;;6294649;28;20114;-74
2022/11/26 09:40:47;;;;;;;22.38;20.05;;;;;;;;;;6292102;28;20224;-74
2022/11/26 09:44:01;;;;;;;21.88;18.17;;;;;;;;;;6289874;28;20087;-71
2022/11/26 09:47:10;;;;;;;16.38;14.57;;;;;;;;;;6296321;28;20048;-72
2022/11/26 09:50:21;;;;;;;22.88;17.95;;;;;;;;;;6298999;28;20064;-73
2022/11/26 09:53:25;;;;;;;21.30;17.67;;;;;;;;;;6300297;28;20048;-71
2022/11/26 09:56:27;;;;;;;19.98;17.85;;;;;;;;;;6301429;28;20102;-74
2022/11/26 09:59:29;;;;;;;20.40;17.60;;;;;;;;;;6299176;28;20059;-74
2022/11/26 10:02:31;;;;;;;20.00;14.60;;;;;;;;;;6295194;28;20061;-71
2022/11/26 10:05:42;;;;;;;24.35;21.73;;;;;;;;;;6294786;28;20075;-75
2022/11/26 10:09:13;;;;;;;23.48;20.88;;;;;;;;;;6296550;28;20044;-71
2022/11/26 10:12:24;;;;;;;19.65;17.63;;;;;;;;;;6290569;28;20333;-71
2022/11/26 10:15:31;;;;;;;17.75;15.88;;;;;;;;;;6298185;28;20127;-74
2022/11/26 10:18:40;;;;;;;21.60;17.10;;;;;;;;;;6294714;28;20093;-74
2022/11/26 10:21:44;;;;;;;19.08;17.05;;;;;;;;;;6295792;28;20059;-72
2022/11/26 10:24:48;;;;;;;23.67;21.15;;;;;;;;;;6298017;28;20041;-73
2022/11/26 10:27:50;;;;;;;24.73;21.58;;;;;;;;;;6296227;28;20052;-75
2022/11/26 10:30:57;;;;;;;26.70;23.48;;;;;;;;;;6296467;28;20044;-72
2022/11/26 10:34:01;;;;;;;20.67;18.60;;;;;;;;;;6293574;28;20064;-74
2022/11/26 10:37:02;;;;;;;20.35;18.35;;;;;;;;;;6293557;28;20057;-72
2022/11/26 10:40:18;;;;;;;22.05;15.27;;;;;;;;;;6293729;28;20048;-70
2022/11/26 10:43:51;;;;;;;45.47;40.67;;;;;;;;;;6280119;27;1389113;-70
2022/11/26 10:46:53;;;;;;;64.88;43.33;;;;;;;;;;6309671;28;20055;-71
2022/11/26 10:49:55;;;;;;;241.35;55.92;;;;;;;;;;6312811;28;20068;-72
2022/11/26 10:53:04;;;;;;;63.83;39.75;;;;;;;;;;6312456;28;20308;-70
2022/11/26 10:56:07;;;;;;;52.38;39.75;;;;;;;;;;6314592;28;20079;-71
2022/11/26 10:59:18;;;;;;;57.73;42.33;;;;;;;;;;6311034;28;20051;-72
2022/11/26 11:02:29;;;;;;;59.85;46.63;;;;;;;;;;6308668;28;20467;-69
2022/11/26 11:05:30;;;;;;;60.90;44.05;;;;;;;;;;6310749;28;20056;-73
2022/11/26 11:08:39;;;;;;;64.18;47.22;;;;;;;;;;6308205;28;20051;-78
2022/11/26 11:11:40;;;;;;;59.75;43.80;;;;;;;;;;6317176;28;20061;-77
2022/11/26 11:14:45;;;;;;;57.28;43.28;;;;;;;;;;6307807;28;20053;-75
2022/11/26 11:17:47;;;;;;;56.03;41.38;;;;;;;;;;6311085;28;20056;-76
2022/11/26 11:20:54;;;;;;;50.60;40.00;;;;;;;;;;6308733;28;20048;-76
2022/11/26 11:24:06;;;;;;;54.85;41.00;;;;;;;;;;6317443;28;20056;-73
2022/11/26 11:27:21;;;;;;;51.75;38.85;;;;;;;;;;6311892;28;20044;-73
2022/11/26 11:30:25;;;;;;;52.22;38.85;;;;;;;;;;6310032;28;20415;-75
2022/11/26 11:33:29;;;;;;;50.72;39.33;;;;;;;;;;6311258;28;20052;-75
2022/11/26 11:36:31;;;;;;;50.25;38.03;;;;;;;;;;6315698;28;20118;-73
2022/11/26 11:39:33;;;;;;;47.55;37.22;;;;;;;;;;6308929;28;20232;-76
2022/11/26 11:42:34;;;;;;;52.40;37.20;;;;;;;;;;6314785;28;20052;-73
2022/11/26 11:45:40;;;;;;;47.20;36.03;;;;;;;;;;6309569;28;20056;-73
2022/11/26 11:48:49;;;;;;;46.17;38.20;;;;;;;;;;6311087;28;20052;-73
2022/11/26 11:52:01;;;;;;;62.17;38.17;;;;;;;;;;6316735;28;20056;-73
2022/11/26 11:55:09;;;;;;;45.88;36.90;;;;;;;;;;6298538;28;20296;-74
2022/11/26 11:58:19;;;;;;;102.15;41.13;;;;;;;;;;6297777;28;20083;-75
2022/11/26 12:01:27;;;;;;;42.00;35.88;;;;;;;;;;6297105;28;20044;-75
2022/11/26 12:04:45;;;;;;;41.88;36.03;;;;;;;;;;6293910;28;20105;-77
2022/11/26 12:07:51;;;;;;;47.47;35.95;;;;;;;;;;6297241;28;20063;-76
2022/11/26 12:10:56;;;;;;;45.28;37.53;;;;;;;;;;6301332;28;20056;-80
2022/11/26 12:14:00;;;;;;;47.45;37.22;;;;;;;;;;6301436;28;20048;-75
2022/11/26 12:17:04;;;;;;;49.38;36.63;;;;;;;;;;6297899;28;20041;-74
2022/11/26 12:20:14;;;;;;;39.47;34.60;;;;;;;;;;6299446;28;20111;-76
2022/11/26 12:23:24;;;;;;;39.90;34.50;;;;;;;;;;6296944;28;20072;-76
2022/11/26 12:26:27;;;;;;;38.33;33.88;;;;;;;;;;6296672;28;20052;-78
2022/11/26 12:29:32;;;;;;;38.92;34.75;;;;;;;;;;6295435;28;20052;-75
2022/11/26 12:32:36;;;;;;;39.88;33.83;;;;;;;;;;6298831;28;20068;-78
2022/11/26 12:35:40;;;;;;;47.80;41.17;;;;;;;;;;6294294;28;20064;-77
2022/11/26 12:38:44;;;;;;;45.10;39.60;;;;;;;;;;6303057;28;20332;-77
2022/11/26 12:41:52;;;;;;;46.40;41.28;;;;;;;;;;6295378;28;20047;-75
2022/11/26 12:44:56;;;;;;;52.33;44.65;;;;;;;;;;6295267;28;20041;-74
2022/11/26 12:47:59;;;;;;;52.08;44.80;;;;;;;;;;6295613;28;20055;-75
2022/11/26 12:51:09;;;;;;;44.67;39.78;;;;;;;;;;6294577;28;20102;-74
2022/11/26 12:54:15;;;;;;;45.17;38.88;;;;;;;;;;6297509;28;20067;-74
2022/11/26 12:57:20;;;;;;;45.10;39.58;;;;;;;;;;6299281;28;20052;-78
2022/11/26 13:00:26;;;;;;;44.97;37.88;;;;;;;;;;6296917;28;20049;-80
2022/11/26 13:03:29;;;;;;;41.92;37.05;;;;;;;;;;6292323;28;20249;-75
2022/11/26 13:06:38;;;;;;;43.45;38.63;;;;;;;;;;6293826;28;20106;-78
2022/11/26 13:09:53;;;;;;;42.42;36.97;;;;;;;;;;6293588;28;20340;-74
2022/11/26 13:12:58;;;;;;;37.75;33.13;;;;;;;;;;6293145;28;20130;-77
2022/11/26 13:16:06;;;;;;;36.35;32.25;;;;;;;;;;6294170;28;20057;-78
2022/11/26 13:19:10;;;;;;;41.40;36.75;;;;;;;;;;6291503;28;20136;-70
2022/11/26 13:22:29;;;;;;;41.08;34.78;;;;;;;;;;6294359;28;20243;-70
2022/11/26 13:25:42;;;;;;;40.38;35.70;;;;;;;;;;6292157;28;20288;-70
2022/11/26 13:28:50;;;;;;;41.33;34.20;;;;;;;;;;6290405;28;20120;-70
2022/11/26 13:31:56;;;;;;;38.35;34.08;;;;;;;;;;6294027;28;20074;-69
2022/11/26 13:35:03;;;;;;;42.63;36.95;;;;;;;;;;6294501;28;20079;-70
2022/11/26 13:38:12;;;;;;;44.55;36.85;;;;;;;;;;6294491;28;20115;-70
2022/11/26 13:41:21;;;;;;;38.33;34.13;;;;;;;;;;6290591;28;20320;-77
2022/11/26 13:44:45;;;;;;;41.30;35.08;;;;;;;;;;6294190;28;20065;-78
2022/11/26 13:47:48;;;;;;;38.25;33.03;;;;;;;;;;6293386;28;21608;-76
2022/11/26 13:50:49;;;;;;;;;;;;;;;;;;6293408;28;20052;-78
2022/11/26 13:53:53;;;;;;;37.42;30.90;;;;;;;;;;6292924;28;19954;-78
2022/11/26 13:56:59;;;;;;;36.53;30.40;;;;;;;;;;6293795;28;20053;-79
2022/11/26 14:00:02;;;;;;;40.30;30.98;;;;;;;;;;6296831;28;20232;-77
2022/11/26 14:03:05;;;;;;;35.83;29.52;;;;;;;;;;6292186;28;20136;-83
2022/11/26 14:06:07;;;;;;;199.43;38.33;;;;;;;;;;6295268;28;20063;-81
2022/11/26 14:09:29;;;;;;;45.67;30.85;;;;;;;;;;6296105;28;20467;-82
2022/11/26 14:13:03;;;;;;;42.03;31.92;;;;;;;;;;6295078;28;20053;-81
2022/11/26 14:16:06;;;;;;;37.90;27.42;;;;;;;;;;6289975;28;20116;-80
2022/11/26 14:19:08;;;;;;;40.42;29.83;;;;;;;;;;6289392;28;20057;-78
2022/11/26 14:22:25;;;;;;;43.00;27.85;;;;;;;;;;6289937;28;20075;-77
2022/11/26 14:25:37;;;;;;;46.50;27.63;;;;;;;;;;6293290;28;20057;-78
2022/11/26 14:28:38;;;;;;;32.47;24.58;;;;;;;;;;6290858;28;20223;-75
2022/11/26 14:31:43;;;;;;;38.58;24.83;;;;;;;;;;6290079;28;20092;-77
2022/11/26 14:34:47;;;;;;;38.58;25.63;;;;;;;;;;6293148;28;20050;-78
2022/11/26 14:37:55;;;;;;;35.65;24.90;;;;;;;;;;6291180;28;20067;-77
2022/11/26 14:41:00;;;;;;;37.45;25.90;;;;;;;;;;6290868;28;20049;-76
2022/11/26 14:44:08;;;;;;;41.67;27.60;;;;;;;;;;6287771;28;20095;-76
2022/11/26 14:47:16;;;;;;;42.40;28.42;;;;;;;;;;6290872;28;20131;-75
2022/11/26 14:50:20;;;;;;;46.50;31.63;;;;;;;;;;6290221;28;20056;-76
2022/11/26 14:53:22;;;;;;;48.22;33.97;;;;;;;;;;6291196;28;21048;-76
2022/11/26 14:56:24;;;;;;;44.43;33.67;;;;;;;;;;6295498;28;20053;-74
2022/11/26 14:59:26;;;;;;;50.08;36.05;;;;;;;;;;6291510;28;20064;-79
2022/11/26 15:02:29;;;;;;;51.60;37.15;;;;;;;;;;6288396;28;20063;-78
2022/11/26 15:05:31;;;;;;;;;;;;;;;;;;6291266;28;20054;-77
2022/11/26 15:08:32;;;;;;;56.60;39.40;;;;;;;;;;6293338;28;19917;-78
2022/11/26 15:11:36;;;;;;;58.28;39.70;;;;;;;;;;6290845;28;20049;-76
2022/11/26 15:14:40;;;;;;;52.55;37.78;;;;;;;;;;6293002;28;20045;-80
2022/11/26 15:17:44;;;;;;;56.92;38.58;;;;;;;;;;6291281;28;20981;-78
2022/11/26 15:20:50;;;;;;;57.22;38.70;;;;;;;;;;6294834;28;20320;-77
2022/11/26 15:23:53;;;;;;;57.83;38.30;;;;;;;;;;6289335;28;20045;-74
2022/11/26 15:26:54;;;;;;;55.08;38.03;;;;;;;;;;6293471;28;20237;-75
2022/11/26 15:29:55;;;;;;;56.92;39.92;;;;;;;;;;6297661;28;20052;-77
2022/11/26 15:32:59;;;;;;;56.00;37.97;;;;;;;;;;6296980;28;20059;-74
2022/11/26 15:36:01;;;;;;;59.28;40.75;;;;;;;;;;6301205;28;20048;-73
2022/11/26 15:39:05;;;;;;;58.10;41.00;;;;;;;;;;6293444;28;20057;-74
2022/11/26 15:42:21;;;;;;;63.53;40.45;;;;;;;;;;6293628;28;20040;-74
2022/11/26 15:45:25;;;;;;;61.10;41.08;;;;;;;;;;6299020;28;20162;-73
2022/11/26 15:48:29;;;;;;;58.53;39.20;;;;;;;;;;6305172;28;20052;-75
2022/11/26 15:51:33;;;;;;;60.17;40.83;;;;;;;;;;6299037;28;20056;-73
2022/11/26 15:54:35;;;;;;;57.60;39.60;;;;;;;;;;6292738;28;20049;-71
2022/11/26 15:57:39;;;;;;;56.45;38.95;;;;;;;;;;6292678;28;20255;-71
2022/11/26 16:00:40;;;;;;;;;;;;;;;;;;6301084;28;20044;-69
2022/11/26 16:03:45;;;;;;;59.58;39.33;;;;;;;;;;6297829;28;19954;-70
2022/11/26 16:06:46;;;;;;;61.15;40.03;;;;;;;;;;6301008;28;20082;-70
2022/11/26 16:09:49;;;;;;;63.05;40.67;;;;;;;;;;6298382;28;20093;-71
2022/11/26 16:13:08;;;;;;;67.20;44.10;;;;;;;;;;6300487;28;20809;-70
2022/11/26 16:16:12;;;;;;;62.42;42.88;;;;;;;;;;6298238;28;20064;-71
2022/11/26 16:19:16;;;;;;;66.07;41.85;;;;;;;;;;6296040;28;20071;-71
2022/11/26 16:22:18;;;;;;;62.72;41.75;;;;;;;;;;6295175;28;20267;-70
2022/11/26 16:25:20;;;;;;;66.75;41.35;;;;;;;;;;6288113;28;20094;-73
2022/11/26 16:28:22;;;;;;;67.75;43.38;;;;;;;;;;6297053;28;20055;-73
2022/11/26 16:31:23;;;;;;;62.33;41.53;;;;;;;;;;6298422;28;20190;-73
2022/11/26 16:34:26;;;;;;;64.38;41.95;;;;;;;;;;6294932;28;20248;-72
2022/11/26 16:37:30;;;;;;;65.70;42.43;;;;;;;;;;6292579;28;20110;-72
2022/11/26 16:40:33;;;;;;;66.53;43.53;;;;;;;;;;6293861;28;20048;-72
2022/11/26 16:43:34;;;;;;;68.70;41.67;;;;;;;;;;6299968;28;20328;-72
2022/11/26 16:46:36;;;;;;;64.35;43.17;;;;;;;;;;6298867;28;20048;-70
2022/11/26 16:49:39;;;;;;;65.72;44.30;;;;;;;;;;6294315;28;20429;-72
2022/11/26 16:52:41;;;;;;;64.72;44.17;;;;;;;;;;6296128;28;20043;-72
2022/11/26 16:55:42;;;;;;;72.25;45.70;;;;;;;;;;6296911;28;20064;-72
2022/11/26 16:58:44;;;;;;;62.53;42.95;;;;;;;;;;6299333;28;20090;-70
2022/11/26 17:01:45;;;;;;;67.10;44.00;;;;;;;;;;6298394;28;20094;-70
2022/11/26 17:04:48;;;;;;;65.00;41.35;;;;;;;;;;6294288;28;20064;-70
2022/11/26 17:07:52;;;;;;;65.15;42.95;;;;;;;;;;6293432;28;20056;-70
2022/11/26 17:10:54;;;;;;;65.20;43.40;;;;;;;;;;6292786;28;20094;-70
2022/11/26 17:13:56;;;;;;;67.97;42.53;;;;;;;;;;6287403;28;20062;-70
2022/11/26 17:16:57;;;;;;;68.75;45.13;;;;;;;;;;6295085;28;20048;-70
2022/11/26 17:20:00;;;;;;;69.05;44.60;;;;;;;;;;6297735;28;20067;-71
2022/11/26 17:23:02;;;;;;;68.43;43.28;;;;;;;;;;6300677;28;20048;-70
2022/11/26 17:26:05;;;;;;;63.08;41.63;;;;;;;;;;6295901;28;20071;-70
2022/11/26 17:29:06;;;;;;;73.23;45.43;;;;;;;;;;6296083;28;20059;-71
2022/11/26 17:32:10;;;;;;;65.97;42.50;;;;;;;;;;6295670;28;20394;-70
2022/11/26 17:35:13;;;;;;;70.53;44.13;;;;;;;;;;6293627;28;20083;-69
2022/11/26 17:38:16;;;;;;;68.80;42.70;;;;;;;;;;6294690;28;20045;-70
2022/11/26 17:41:18;;;;;;;68.28;43.22;;;;;;;;;;6290727;28;20057;-70
2022/11/26 17:44:20;;;;;;;67.72;43.33;;;;;;;;;;6292308;28;20237;-71
2022/11/26 17:47:22;;;;;;;69.07;44.42;;;;;;;;;;6295206;28;20056;-69
2022/11/26 17:50:26;;;;;;;65.78;41.13;;;;;;;;;;6291348;28;20048;-69
2022/11/26 17:53:28;;;;;;;60.47;37.28;;;;;;;;;;6291321;28;20080;-70